createdAt,value
2023-06-06T00:01:24.361Z,17.05
2023-06-06T00:04:28.869Z,17.18
2023-06-06T00:07:34.059Z,17.30
2023-06-06T00:10:40.405Z,17.41
2023-06-06T00:13:45.533Z,17.48
2023-06-06T00:16:50.101Z,17.64
2023-06-06T00:19:56.053Z,17.73
2023-06-06T00:22:59.405Z,17.83
2023-06-06T00:26:02.318Z,17.80
2023-06-06T00:29:05.400Z,17.78
2023-06-06T00:32:08.435Z,17.81
2023-06-06T00:35:11.587Z,17.92
2023-06-06T00:38:14.581Z,18.03
2023-06-06T00:41:17.877Z,18.12
2023-06-06T00:44:22.312Z,18.18
2023-06-06T00:47:28.428Z,18.22
2023-06-06T00:50:32.185Z,18.22
2023-06-06T00:53:38.645Z,18.29
2023-06-06T00:56:45.193Z,18.36
2023-06-06T00:59:48.494Z,18.30
2023-06-06T01:02:51.450Z,18.27
2023-06-06T01:05:55.003Z,18.20
2023-06-06T01:09:06.496Z,17.91
2023-06-06T01:12:37.119Z,17.70
2023-06-06T01:15:49.349Z,17.57
2023-06-06T01:18:53.790Z,17.52
2023-06-06T01:21:58.680Z,17.51
2023-06-06T01:25:05.166Z,17.52
2023-06-06T01:28:14.815Z,17.47
2023-06-06T01:31:23.514Z,17.41
2023-06-06T01:34:40.407Z,17.44
2023-06-06T01:37:53.912Z,17.48
2023-06-06T01:40:59.677Z,17.53
2023-06-06T01:44:04.235Z,17.62
2023-06-06T01:47:09.029Z,17.71
2023-06-06T01:50:14.058Z,17.77
2023-06-06T01:53:17.142Z,17.78
2023-06-06T01:56:20.441Z,17.80
2023-06-06T01:59:24.246Z,17.83
2023-06-06T02:02:28.633Z,17.83
2023-06-06T02:05:31.845Z,17.88
2023-06-06T02:08:35.237Z,17.87
2023-06-06T02:11:42.747Z,17.92
2023-06-06T02:14:46.275Z,17.93
2023-06-06T02:17:50.660Z,17.90
2023-06-06T02:20:53.938Z,17.77
2023-06-06T02:23:59.713Z,17.51
2023-06-06T02:27:08.202Z,17.21
2023-06-06T02:30:12.221Z,17.20
2023-06-06T02:33:15.529Z,16.93
2023-06-06T02:36:19.922Z,16.86
2023-06-06T02:39:25.727Z,16.63
2023-06-06T02:42:29.687Z,16.72
2023-06-06T02:45:39.564Z,16.72
2023-06-06T02:48:46.970Z,16.96
2023-06-06T02:51:51.925Z,17.08
2023-06-06T02:54:56.561Z,17.18
2023-06-06T02:58:00.258Z,17.41
2023-06-06T03:01:06.464Z,17.56
2023-06-06T03:04:13.333Z,17.59
2023-06-06T03:07:18.392Z,17.73
2023-06-06T03:10:24.917Z,17.78
2023-06-06T03:13:28.528Z,17.86
2023-06-06T03:16:32.064Z,17.91
2023-06-06T03:19:36.006Z,18.09
2023-06-06T03:22:41.290Z,18.17
2023-06-06T03:25:45.598Z,18.03
2023-06-06T03:28:50.795Z,18.07
2023-06-06T03:31:54.510Z,18.34
2023-06-06T03:34:57.785Z,18.32
2023-06-06T03:38:02.642Z,18.30
2023-06-06T03:41:05.833Z,18.52
2023-06-06T03:44:10.490Z,18.42
2023-06-06T03:47:14.006Z,17.99
2023-06-06T03:50:17.811Z,17.91
2023-06-06T03:53:21.248Z,17.96
2023-06-06T03:56:25.156Z,17.79
2023-06-06T03:59:27.919Z,17.93
2023-06-06T04:02:31.408Z,18.04
2023-06-06T04:05:34.408Z,18.12
2023-06-06T04:08:37.479Z,18.15
2023-06-06T04:11:40.556Z,18.20
2023-06-06T04:14:44.142Z,18.02
2023-06-06T04:17:46.932Z,18.35
2023-06-06T04:20:49.773Z,18.25
2023-06-06T04:23:57.271Z,18.55
2023-06-06T04:27:04.719Z,18.46
2023-06-06T04:30:10.379Z,18.51
2023-06-06T04:33:13.570Z,18.30
2023-06-06T04:36:16.507Z,18.57
2023-06-06T04:39:24.199Z,18.72
2023-06-06T04:42:37.294Z,18.83
2023-06-06T04:45:40.878Z,18.74
2023-06-06T04:48:46.684Z,18.95
2023-06-06T04:51:49.548Z,19.09
2023-06-06T04:54:53.361Z,19.18
2023-06-06T04:57:57.045Z,19.18
2023-06-06T05:01:00.176Z,19.33
2023-06-06T05:04:04.554Z,19.39
2023-06-06T05:07:10.344Z,19.22
2023-06-06T05:10:13.978Z,19.31
2023-06-06T05:13:22.481Z,19.43
2023-06-06T05:16:28.977Z,19.35
2023-06-06T05:19:32.728Z,19.39
2023-06-06T05:22:36.514Z,19.36
2023-06-06T05:25:43.580Z,19.53
2023-06-06T05:28:47.419Z,19.43
2023-06-06T05:31:51.049Z,19.32
2023-06-06T05:34:55.053Z,19.03
2023-06-06T05:37:58.742Z,18.82
2023-06-06T05:41:04.274Z,18.80
2023-06-06T05:44:16.481Z,18.92
2023-06-06T05:47:49.883Z,18.84
2023-06-06T05:51:17.733Z,19.12
2023-06-06T05:54:41.507Z,19.30
2023-06-06T05:57:57.815Z,19.45
2023-06-06T06:01:02.581Z,19.68
2023-06-06T06:04:10.508Z,19.65
2023-06-06T06:07:15.508Z,19.69
2023-06-06T06:10:22.466Z,19.10
2023-06-06T06:13:26.547Z,19.33
2023-06-06T06:16:31.633Z,19.19
2023-06-06T06:19:41.108Z,19.40
2023-06-06T06:22:45.718Z,19.53
2023-06-06T06:25:49.205Z,19.33
2023-06-06T06:28:56.457Z,19.17
2023-06-06T06:32:00.167Z,19.10
2023-06-06T06:35:09.683Z,19.32
2023-06-06T06:38:13.574Z,19.45
2023-06-06T06:41:19.001Z,19.57
2023-06-06T06:44:23.917Z,19.54
2023-06-06T06:47:31.113Z,19.93
2023-06-06T06:50:50.558Z,19.89
2023-06-06T06:53:59.454Z,19.37
2023-06-06T06:57:21.963Z,19.22
2023-06-06T07:00:31.931Z,19.21
2023-06-06T07:03:38.242Z,19.24
2023-06-06T07:06:48.197Z,19.23
2023-06-06T07:09:58.242Z,19.30
2023-06-06T07:13:01.636Z,19.51
2023-06-06T07:16:10.752Z,19.49
2023-06-06T07:19:19.002Z,19.77
2023-06-06T07:22:23.842Z,19.88
2023-06-06T07:25:33.346Z,19.62
2023-06-06T07:29:03.239Z,19.36
2023-06-06T07:32:14.285Z,19.39
2023-06-06T07:35:21.451Z,19.15
2023-06-06T07:38:26.683Z,19.35
2023-06-06T07:41:32.722Z,19.58
2023-06-06T07:44:35.932Z,19.44
2023-06-06T07:47:42.227Z,19.39
2023-06-06T07:50:46.766Z,19.43
2023-06-06T07:53:53.927Z,19.43
2023-06-06T07:56:58.349Z,19.17
2023-06-06T08:00:02.038Z,19.59
2023-06-06T08:04:48.028Z,19.45
2023-06-06T08:08:30.826Z,19.25
2023-06-06T08:16:33.126Z,19.13
2023-06-06T08:19:40.506Z,19.27
2023-06-06T08:22:54.248Z,19.42
2023-06-06T08:26:00.136Z,19.63
2023-06-06T08:29:30.135Z,19.45
2023-06-06T08:32:41.389Z,19.46
2023-06-06T08:35:44.869Z,19.45
2023-06-06T08:38:51.351Z,19.51
2023-06-06T08:41:57.771Z,19.46
2023-06-06T08:45:28.115Z,19.41
2023-06-06T08:50:02.459Z,19.35
2023-06-06T08:58:10.673Z,19.49
2023-06-06T09:01:23.703Z,19.51
2023-06-06T09:04:28.280Z,19.20
2023-06-06T09:08:00.154Z,19.56
2023-06-06T09:14:56.505Z,19.09
2023-06-06T09:18:11.877Z,19.28
2023-06-06T09:21:20.057Z,19.44
2023-06-06T09:24:24.256Z,19.16
2023-06-06T09:27:31.743Z,19.40
2023-06-06T09:30:37.712Z,19.37
2023-06-06T09:33:49.557Z,19.49
2023-06-06T09:36:58.530Z,19.66
2023-06-06T09:40:19.650Z,19.94
2023-06-06T09:43:28.847Z,19.81
2023-06-06T09:46:37.890Z,19.92
2023-06-06T09:49:45.549Z,20.06
2023-06-06T09:52:53.808Z,20.05
2023-06-06T09:56:47.276Z,20.11
2023-06-06T09:59:55.565Z,20.26
2023-06-06T10:03:18.628Z,20.16
2023-06-06T10:10:08.898Z,20.50
2023-06-06T10:13:24.204Z,20.38
2023-06-06T10:16:40.715Z,20.22
2023-06-06T10:19:51.860Z,20.51
2023-06-06T10:23:00.799Z,20.82
2023-06-06T10:26:24.732Z,20.71
2023-06-06T10:29:51.967Z,20.23
2023-06-06T10:33:43.109Z,20.40
2023-06-06T10:37:03.091Z,20.70
2023-06-06T10:40:11.328Z,20.63
2023-06-06T10:48:47.869Z,20.06
2023-06-06T10:52:08.932Z,20.28
2023-06-06T10:55:50.871Z,19.91
2023-06-06T10:58:55.591Z,19.81
2023-06-06T11:02:12.465Z,19.74
2023-06-06T11:05:23.057Z,19.74
2023-06-06T11:08:52.933Z,20.06
2023-06-06T11:12:19.310Z,20.27
2023-06-06T11:15:33.166Z,20.73
2023-06-06T11:18:40.963Z,20.83
2023-06-06T11:22:10.828Z,21.02
2023-06-06T11:25:22.222Z,20.90
2023-06-06T11:28:28.444Z,21.23
2023-06-06T11:31:37.049Z,21.33
2023-06-06T11:34:43.073Z,21.22
2023-06-06T11:37:47.820Z,21.70
2023-06-06T11:41:00.163Z,21.52
2023-06-06T11:44:14.865Z,21.48
2023-06-06T11:47:19.333Z,21.67
2023-06-06T11:50:35.616Z,22.12
2023-06-06T11:53:39.712Z,21.53
2023-06-06T11:56:47.380Z,21.76
2023-06-06T12:00:47.164Z,21.80
2023-06-06T12:04:16.796Z,21.95
2023-06-06T12:07:46.328Z,21.92
2023-06-06T12:10:58.292Z,22.03
2023-06-06T12:21:49.340Z,21.15
2023-06-06T12:24:59.888Z,21.39
2023-06-06T12:28:18.299Z,21.24
2023-06-06T12:31:31.945Z,21.65
2023-06-06T12:35:03.476Z,21.95
2023-06-06T12:38:19.851Z,21.95
2023-06-06T12:41:57.692Z,21.94
2023-06-06T12:45:26.359Z,21.25
2023-06-06T12:48:51.259Z,21.45
2023-06-06T12:52:16.018Z,21.16
2023-06-06T12:55:21.375Z,20.83
2023-06-06T12:58:25.037Z,20.59
2023-06-06T13:01:44.818Z,20.45
2023-06-06T13:05:16.679Z,20.89
2023-06-06T13:13:33.431Z,21.58
2023-06-06T13:17:13.197Z,21.61
2023-06-06T13:20:35.778Z,21.37
2023-06-06T13:23:55.806Z,21.74
2023-06-06T13:31:10.610Z,21.86
2023-06-06T13:34:17.930Z,21.88
2023-06-06T13:37:39.861Z,21.59
2023-06-06T13:42:07.238Z,21.79
2023-06-06T13:49:31.068Z,22.06
2023-06-06T13:58:31.790Z,21.87
2023-06-06T14:01:48.979Z,22.10
2023-06-06T14:05:37.707Z,22.13
2023-06-06T14:08:58.246Z,22.03
2023-06-06T14:12:06.877Z,21.84
2023-06-06T14:15:46.592Z,21.61
2023-06-06T14:19:00.354Z,21.69
2023-06-06T14:22:33.689Z,21.66
2023-06-06T14:25:39.190Z,21.33
2023-06-06T14:28:55.262Z,21.47
2023-06-06T14:32:02.265Z,21.22
2023-06-06T14:35:09.546Z,21.40
2023-06-06T14:38:12.957Z,21.25
2023-06-06T14:41:16.343Z,21.30
2023-06-06T14:44:21.381Z,21.36
2023-06-06T14:47:24.918Z,21.16
2023-06-06T14:50:28.437Z,21.15
2023-06-06T14:53:31.558Z,21.44
2023-06-06T14:56:34.790Z,21.35
2023-06-06T14:59:40.999Z,21.27
2023-06-06T15:02:44.075Z,20.93
2023-06-06T15:05:46.876Z,20.73
2023-06-06T15:08:49.801Z,21.17
2023-06-06T15:11:55.472Z,21.23
2023-06-06T15:15:00.190Z,21.08
2023-06-06T15:18:03.800Z,21.18
2023-06-06T15:21:07.058Z,21.09
2023-06-06T15:24:10.337Z,20.71
2023-06-06T15:27:13.886Z,20.75
2023-06-06T15:30:17.025Z,20.62
2023-06-06T15:33:20.422Z,20.38
2023-06-06T15:36:23.724Z,20.34
2023-06-06T15:39:27.869Z,20.57
2023-06-06T15:42:30.936Z,20.55
2023-06-06T15:45:34.343Z,20.36
2023-06-06T15:48:37.372Z,20.12
2023-06-06T15:51:41.800Z,19.89
2023-06-06T15:54:44.675Z,19.63
2023-06-06T15:57:48.066Z,19.40
2023-06-06T16:00:51.334Z,19.22
2023-06-06T16:03:55.862Z,19.02
2023-06-06T16:06:58.912Z,18.93
2023-06-06T16:10:02.195Z,18.87
2023-06-06T16:13:06.506Z,18.88
2023-06-06T16:16:11.121Z,18.71
2023-06-06T16:19:15.389Z,18.66
2023-06-06T16:22:19.523Z,18.59
2023-06-06T16:25:22.584Z,18.48
2023-06-06T16:28:25.974Z,18.51
2023-06-06T16:31:32.427Z,18.44
2023-06-06T16:34:37.222Z,18.43
2023-06-06T16:37:41.330Z,18.46
2023-06-06T16:40:44.535Z,18.39
2023-06-06T16:43:47.797Z,18.41
2023-06-06T16:46:58.774Z,18.34
2023-06-06T16:50:03.368Z,18.31
2023-06-06T16:53:06.847Z,18.35
2023-06-06T16:56:11.251Z,18.29
2023-06-06T16:59:17.701Z,18.25
2023-06-06T17:02:30.422Z,18.27
2023-06-06T17:05:34.185Z,18.25
2023-06-06T17:08:37.716Z,18.29
2023-06-06T17:11:44.758Z,18.30
2023-06-06T17:14:49.049Z,18.28
2023-06-06T17:17:53.038Z,18.20
2023-06-06T17:20:56.649Z,18.24
2023-06-06T17:24:00.214Z,18.15
2023-06-06T17:27:04.923Z,18.13
2023-06-06T17:30:09.129Z,18.18
2023-06-06T17:33:13.259Z,18.23
2023-06-06T17:36:17.137Z,18.18
2023-06-06T17:39:21.529Z,18.18
2023-06-06T17:42:25.107Z,18.22
2023-06-06T17:45:29.710Z,18.20
2023-06-06T17:48:38.108Z,18.10
2023-06-06T17:51:41.194Z,18.05
2023-06-06T17:54:44.038Z,18.02
2023-06-06T17:57:46.898Z,18.07
2023-06-06T18:00:50.044Z,18.05
2023-06-06T18:07:00.841Z,17.92
2023-06-06T18:10:05.160Z,17.94
2023-06-06T18:13:08.217Z,17.87
2023-06-06T18:16:12.080Z,17.90
2023-06-06T18:19:15.282Z,17.88
2023-06-06T18:22:19.122Z,17.87
2023-06-06T18:25:22.388Z,17.87
2023-06-06T18:28:25.551Z,17.83
2023-06-06T18:31:37.659Z,17.82
2023-06-06T18:34:41.857Z,17.82
2023-06-06T18:37:47.138Z,17.81
2023-06-06T18:40:50.109Z,17.77
2023-06-06T18:43:52.788Z,17.68
2023-06-06T18:46:55.861Z,17.55
2023-06-06T18:49:59.576Z,17.50
2023-06-06T18:53:03.150Z,17.42
2023-06-06T18:56:06.889Z,17.40
2023-06-06T18:59:09.687Z,17.33
2023-06-06T19:02:12.697Z,17.24
2023-06-06T19:05:15.755Z,17.20
2023-06-06T19:08:18.636Z,17.19
2023-06-06T19:11:22.393Z,17.13
2023-06-06T19:14:25.193Z,17.08
2023-06-06T19:17:28.205Z,17.02
2023-06-06T19:20:31.062Z,17.00
2023-06-06T19:23:34.255Z,16.96
2023-06-06T19:26:37.201Z,16.99
2023-06-06T19:29:40.063Z,17.01
2023-06-06T19:32:43.686Z,17.02
2023-06-06T19:35:47.565Z,17.03
2023-06-06T19:38:50.374Z,16.93
2023-06-06T19:41:53.351Z,16.92
2023-06-06T19:44:56.826Z,16.89
2023-06-06T19:47:59.747Z,16.84
2023-06-06T19:51:03.940Z,16.76
2023-06-06T19:54:07.237Z,16.78
2023-06-06T19:57:10.357Z,16.79
2023-06-06T20:00:14.694Z,16.84
2023-06-06T20:03:17.626Z,16.84
2023-06-06T20:06:20.604Z,16.76
2023-06-06T20:09:23.741Z,16.79
2023-06-06T20:12:27.125Z,16.80
2023-06-06T20:15:30.317Z,16.84
2023-06-06T20:18:33.216Z,16.82
2023-06-06T20:21:36.648Z,16.87
2023-06-06T20:24:39.424Z,16.83
2023-06-06T20:27:42.129Z,16.84
2023-06-06T20:30:47.763Z,16.81
2023-06-06T20:33:50.641Z,16.83
2023-06-06T20:36:53.425Z,16.81
2023-06-06T20:40:16.187Z,16.83
2023-06-06T20:43:22.241Z,16.78
2023-06-06T20:46:25.280Z,16.68
2023-06-06T20:49:29.864Z,16.70
2023-06-06T20:52:36.105Z,16.68
2023-06-06T20:55:39.336Z,16.68
2023-06-06T20:58:45.415Z,16.66
2023-06-06T21:01:48.953Z,16.66
2023-06-06T21:04:51.982Z,16.67
2023-06-06T21:07:54.852Z,16.67
2023-06-06T21:10:58.246Z,16.69
2023-06-06T21:14:02.041Z,16.55
2023-06-06T21:17:05.314Z,16.66
2023-06-06T21:20:09.599Z,16.61
2023-06-06T21:23:13.124Z,16.59
2023-06-06T21:26:17.297Z,16.53
2023-06-06T21:29:21.211Z,16.51
2023-06-06T21:32:25.459Z,16.48
2023-06-06T21:35:31.960Z,16.48
2023-06-06T21:38:35.235Z,16.45
2023-06-06T21:41:38.824Z,16.55
2023-06-06T21:44:41.952Z,16.53
2023-06-06T21:47:45.113Z,16.57
2023-06-06T21:50:48.498Z,16.60
2023-06-06T21:53:52.047Z,16.67
2023-06-06T21:56:55.132Z,16.75
2023-06-06T21:59:58.747Z,16.73
2023-06-06T22:03:02.309Z,16.76
2023-06-06T22:06:05.623Z,16.77
2023-06-06T22:09:09.000Z,16.78
2023-06-06T22:12:12.248Z,16.77
2023-06-06T22:15:15.210Z,16.72
2023-06-06T22:18:18.392Z,16.62
2023-06-06T22:21:21.401Z,16.63
2023-06-06T22:24:24.697Z,16.62
2023-06-06T22:27:27.930Z,16.57
2023-06-06T22:30:31.835Z,16.61
2023-06-06T22:33:36.890Z,16.62
2023-06-06T22:36:39.988Z,16.52
2023-06-06T22:39:49.108Z,16.51
2023-06-06T22:42:52.165Z,16.55
2023-06-06T22:45:57.641Z,16.52
2023-06-06T22:49:01.253Z,16.51
2023-06-06T22:52:04.680Z,16.57
2023-06-06T22:55:08.361Z,16.50
2023-06-06T22:58:13.685Z,16.60
2023-06-06T23:01:17.063Z,16.64
2023-06-06T23:04:19.995Z,16.61
2023-06-06T23:07:23.102Z,16.61
2023-06-06T23:10:26.323Z,16.60
2023-06-06T23:13:29.328Z,16.42
2023-06-06T23:16:35.205Z,16.55
2023-06-06T23:19:38.999Z,16.49
2023-06-06T23:22:44.009Z,16.55
2023-06-06T23:25:48.450Z,16.58
2023-06-06T23:28:51.687Z,16.59
2023-06-06T23:31:54.856Z,16.59
2023-06-06T23:34:58.143Z,16.58
2023-06-06T23:38:01.190Z,16.61
2023-06-06T23:41:04.166Z,16.61
2023-06-06T23:44:07.144Z,16.57
2023-06-06T23:47:10.475Z,16.51
2023-06-06T23:50:13.487Z,16.55
2023-06-06T23:53:16.336Z,16.54
2023-06-06T23:56:19.226Z,16.56
2023-06-06T23:59:25.833Z,16.50
